Decatur, Iowa
Current Conditions -  °F | °C
As of 7:53 AM on Thursday 30 Oct 2014 (Local Time) from KLWD Reporting Station
Scattered Clouds Scattered Clouds  
Wind Chill:   Ceiling: Unl
Heat Index:   Visibility: 10mi
Dew Point:   Wind: 3mph
Humidity: 73%   Direction: 160°SSE
Pressure: 30"   Gusts: NA
Location:  40.74°N, 93.84°W
Report Text: KLWD 301253Z AUTO 16003KT 10SM SCT110 07/02 A3000 RMK AO2 SLP163 T00670022
Loading
Personal Weather Stations






























Interactive Weather Map
Tropical Storm Tracking
New forecast layout! Learn more

10-Day Weather Forecast

Advertisements
Track Severe Weather on mobile